createdAt,value
2022-08-22T00:01:41.479Z,101634.94
2022-08-22T00:03:00.233Z,101643.56
2022-08-22T00:03:04.185Z,101647.56
2022-08-22T00:04:48.731Z,101632.34
2022-08-22T00:07:27.370Z,101631.59
2022-08-22T00:10:11.591Z,101635.22
2022-08-22T00:13:12.030Z,101634.41
2022-08-22T00:16:09.041Z,101634.47
2022-08-22T00:19:14.173Z,101625.63
2022-08-22T00:22:15.300Z,101625.69
2022-08-22T00:24:48.942Z,101628.44
2022-08-22T00:27:20.941Z,101631.16
2022-08-22T00:29:53.563Z,101641.84
2022-08-22T00:32:34.619Z,101631.31
2022-08-22T00:35:25.331Z,101635.81
2022-08-22T00:38:14.262Z,101629.66
2022-08-22T00:41:05.636Z,101626.16
2022-08-22T00:43:53.395Z,101635.09
2022-08-22T00:46:24.438Z,101632.50
2022-08-22T00:49:30.122Z,101635.19
2022-08-22T00:52:17.884Z,101642.31
2022-08-22T00:55:09.392Z,101643.28
2022-08-22T00:57:57.275Z,101640.69
2022-08-22T01:00:35.250Z,101646.03
2022-08-22T01:03:29.072Z,101640.69
2022-08-22T01:06:10.471Z,101637.25
2022-08-22T01:09:15.233Z,101643.47
2022-08-22T01:12:06.944Z,101639.97
2022-08-22T01:14:42.572Z,101645.31
2022-08-22T01:17:35.273Z,101639.97
2022-08-22T01:20:34.983Z,101643.56
2022-08-22T01:23:40.439Z,101650.72
2022-08-22T01:26:28.860Z,101646.34
2022-08-22T01:29:34.496Z,101647.34
2022-08-22T01:32:43.425Z,101651.00
2022-08-22T01:35:24.564Z,101634.22
2022-08-22T01:38:18.764Z,101642.28
2022-08-22T01:41:13.383Z,101643.28
2022-08-22T01:43:59.791Z,101636.28
2022-08-22T01:46:31.211Z,101643.41
2022-08-22T01:49:09.763Z,101647.00
2022-08-22T01:51:51.725Z,101638.97
2022-08-22T01:54:38.422Z,101653.16
2022-08-22T01:57:08.154Z,101645.16
2022-08-22T01:59:42.674Z,101637.16
2022-08-22T02:02:27.739Z,101646.94
2022-08-22T02:05:06.452Z,101646.03
2022-08-22T02:08:02.083Z,101646.88
2022-08-22T02:10:48.106Z,101642.47
2022-08-22T02:13:17.337Z,101638.00
2022-08-22T02:16:01.465Z,101640.66
2022-08-22T02:18:43.593Z,101626.47
2022-08-22T02:21:21.953Z,101633.56
2022-08-22T02:24:33.423Z,101630.88
2022-08-22T02:27:15.371Z,101625.63
2022-08-22T02:29:50.165Z,101633.66
2022-08-22T02:32:26.846Z,101633.69
2022-08-22T02:35:01.387Z,101634.63
2022-08-22T02:37:40.121Z,101623.03
2022-08-22T02:40:47.983Z,101631.03
2022-08-22T02:43:24.023Z,101624.00
2022-08-22T02:46:11.750Z,101622.28
2022-08-22T02:49:02.372Z,101616.88
2022-08-22T02:51:31.973Z,101624.06
2022-08-22T02:54:14.073Z,101626.75
2022-08-22T02:56:52.626Z,101625.88
2022-08-22T02:59:36.482Z,101619.75
2022-08-22T03:02:24.835Z,101623.31
2022-08-22T03:04:54.380Z,101614.50
2022-08-22T03:07:20.775Z,101616.22
2022-08-22T03:10:19.596Z,101631.34
2022-08-22T03:12:48.962Z,101620.75
2022-08-22T03:15:27.345Z,101608.34
2022-08-22T03:18:16.554Z,101616.34
2022-08-22T03:20:52.337Z,101605.75
2022-08-22T03:23:25.242Z,101611.97
2022-08-22T03:26:01.894Z,101607.56
2022-08-22T03:28:52.640Z,101603.97
2022-08-22T03:31:27.598Z,101603.97
2022-08-22T03:34:20.237Z,101603.16
2022-08-22T03:37:20.985Z,101604.16
2022-08-22T03:40:00.393Z,101598.81
2022-08-22T03:42:38.747Z,101595.28
2022-08-22T03:45:42.985Z,101592.63
2022-08-22T03:48:31.199Z,101590.03
2022-08-22T03:51:09.300Z,101590.97
2022-08-22T03:53:48.498Z,101587.44
2022-08-22T03:56:54.022Z,101592.81
2022-08-22T03:59:56.046Z,101598.22
2022-08-22T04:02:43.065Z,101598.28
2022-08-22T04:05:24.989Z,101603.63
2022-08-22T04:08:36.506Z,101590.41
2022-08-22T04:11:28.590Z,101587.75
2022-08-22T04:14:24.226Z,101586.84
2022-08-22T04:17:04.146Z,101590.38
2022-08-22T04:19:42.409Z,101594.88
2022-08-22T04:22:36.694Z,101597.53
2022-08-22T04:25:17.192Z,101595.81
2022-08-22T04:27:49.643Z,101602.03
2022-08-22T04:30:54.718Z,101600.28
2022-08-22T04:33:31.908Z,101607.41
2022-08-22T04:36:13.516Z,101600.28
2022-08-22T04:39:12.304Z,101606.47
2022-08-22T04:41:48.167Z,101607.44
2022-08-22T04:44:22.531Z,101605.69
2022-08-22T04:46:56.166Z,101598.63
2022-08-22T04:49:46.143Z,101597.69
2022-08-22T04:52:42.178Z,101606.56
2022-08-22T04:55:24.792Z,101603.91
2022-08-22T04:58:06.415Z,101619.88
2022-08-22T05:00:40.401Z,101628.75
2022-08-22T05:03:16.116Z,101628.75
2022-08-22T05:05:45.085Z,101628.75
2022-08-22T05:08:17.299Z,101633.16
2022-08-22T05:10:48.497Z,101625.16
2022-08-22T05:13:25.050Z,101623.38
2022-08-22T05:15:58.098Z,101628.75
2022-08-22T05:18:29.943Z,101626.06
2022-08-22T05:21:01.817Z,101633.19
2022-08-22T05:23:36.074Z,101626.91
2022-08-22T05:26:06.811Z,101628.69
2022-08-22T05:28:37.784Z,101634.94
2022-08-22T05:31:09.087Z,101642.00
2022-08-22T05:33:50.503Z,101649.97
2022-08-22T05:36:24.857Z,101648.16
2022-08-22T05:38:56.303Z,101651.66
2022-08-22T05:41:29.001Z,101648.97
2022-08-22T05:43:58.629Z,101650.72
2022-08-22T05:46:43.191Z,101655.13
2022-08-22T05:49:19.927Z,101644.53
2022-08-22T05:52:04.708Z,101635.66
2022-08-22T05:54:48.467Z,101643.66
2022-08-22T05:57:27.238Z,101640.13
2022-08-22T06:00:03.930Z,101652.47
2022-08-22T06:02:56.015Z,101653.34
2022-08-22T06:05:34.970Z,101657.72
2022-08-22T06:08:23.883Z,101649.69
2022-08-22T06:10:59.324Z,101652.34
2022-08-22T06:13:37.744Z,101662.13
2022-08-22T06:16:21.365Z,101662.94
2022-08-22T06:18:50.567Z,101664.72
2022-08-22T06:21:39.310Z,101670.81
2022-08-22T06:24:13.230Z,101667.22
2022-08-22T06:26:48.722Z,101670.69
2022-08-22T06:29:36.128Z,101669.69
2022-08-22T06:32:10.334Z,101666.09
2022-08-22T06:34:41.075Z,101668.75
2022-08-22T06:37:12.285Z,101668.69
2022-08-22T06:39:43.433Z,101670.50
2022-08-22T06:42:19.899Z,101672.28
2022-08-22T06:45:17.420Z,101674.03
2022-08-22T06:47:53.677Z,101670.31
2022-08-22T06:50:32.118Z,101672.84
2022-08-22T06:53:01.150Z,101673.53
2022-08-22T06:55:30.231Z,101679.50
2022-08-22T06:58:01.438Z,101676.50
2022-08-22T07:00:28.293Z,101676.06
2022-08-22T07:03:14.347Z,101681.00
2022-08-22T07:05:42.886Z,101677.78
2022-08-22T07:08:14.982Z,101682.50
2022-08-22T07:10:44.115Z,101682.66
2022-08-22T07:13:19.133Z,101678.72
2022-08-22T07:15:53.831Z,101676.75
2022-08-22T07:18:25.945Z,101667.88
2022-08-22T07:20:59.089Z,101673.50
2022-08-22T07:23:47.796Z,101672.72
2022-08-22T07:26:28.429Z,101672.97
2022-08-22T07:29:11.393Z,101667.59
2022-08-22T07:31:51.552Z,101659.81
2022-08-22T07:34:42.836Z,101663.78
2022-08-22T07:37:52.006Z,101661.28
2022-08-22T07:40:25.131Z,101654.34
2022-08-22T07:43:00.869Z,101655.34
2022-08-22T07:45:37.674Z,101653.75
2022-08-22T07:48:31.633Z,101649.34
2022-08-22T07:51:13.580Z,101645.25
2022-08-22T07:54:00.351Z,101637.00
2022-08-22T07:56:53.559Z,101618.47
2022-08-22T07:59:22.458Z,101638.72
2022-08-22T08:01:53.884Z,101633.34
2022-08-22T08:04:26.090Z,101625.66
2022-08-22T08:06:58.082Z,101613.09
2022-08-22T08:09:30.890Z,101618.28
2022-08-22T08:11:59.303Z,101623.53
2022-08-22T08:14:26.994Z,101623.75
2022-08-22T08:17:13.030Z,101620.44
2022-08-22T08:19:42.537Z,101609.53
2022-08-22T08:22:15.653Z,101620.41
2022-08-22T08:24:44.872Z,101614.50
2022-08-22T08:27:34.602Z,101614.69
2022-08-22T08:30:22.137Z,101613.00
2022-08-22T08:32:57.526Z,101616.25
2022-08-22T08:36:02.599Z,101610.22
2022-08-22T08:38:40.226Z,101614.81
2022-08-22T08:41:45.634Z,101615.13
2022-08-22T08:44:49.550Z,101625.19
2022-08-22T08:47:46.290Z,101613.06
2022-08-22T08:50:33.368Z,101618.72
2022-08-22T08:53:24.247Z,101625.91
2022-08-22T08:56:17.811Z,101622.75
2022-08-22T08:59:09.979Z,101620.53
2022-08-22T09:02:13.625Z,101623.63
2022-08-22T09:05:12.533Z,101611.47
2022-08-22T09:08:17.184Z,101610.94
2022-08-22T09:11:17.642Z,101618.72
2022-08-22T09:14:17.139Z,101611.09
2022-08-22T09:17:23.578Z,101616.66
2022-08-22T09:23:38.852Z,101623.84
2022-08-22T09:26:38.617Z,101615.03
2022-08-22T09:29:09.571Z,101614.22
2022-08-22T09:31:52.129Z,101615.91
2022-08-22T09:34:56.224Z,101598.56
2022-08-22T09:38:20.897Z,101599.53
2022-08-22T09:40:15.553Z,101615.84
2022-08-22T09:41:13.292Z,101591.47
2022-08-22T09:44:27.903Z,101598.34
2022-08-22T09:47:14.385Z,101591.31
2022-08-22T09:49:43.067Z,101591.19
2022-08-22T09:53:02.280Z,101584.78
2022-08-22T09:55:47.639Z,101587.50
2022-08-22T09:58:42.283Z,101585.56
2022-08-22T10:01:36.355Z,101570.16
2022-08-22T10:04:37.331Z,101579.41
2022-08-22T10:07:25.183Z,101581.97
2022-08-22T10:10:04.769Z,101577.06
2022-08-22T10:12:58.612Z,101575.56
2022-08-22T10:15:51.146Z,101575.34
2022-08-22T10:18:53.718Z,101571.50
2022-08-22T10:22:15.738Z,101566.16
2022-08-22T10:25:00.027Z,101563.06
2022-08-22T10:27:38.009Z,101558.81
2022-08-22T10:30:16.306Z,101559.16
2022-08-22T10:33:29.199Z,101558.72
2022-08-22T10:36:20.370Z,101548.66
2022-08-22T10:38:55.052Z,101544.72
2022-08-22T10:41:36.716Z,101546.06
2022-08-22T10:44:21.522Z,101544.63
2022-08-22T10:47:06.643Z,101545.94
2022-08-22T10:49:55.574Z,101553.13
2022-08-22T10:52:32.614Z,101536.19
2022-08-22T10:55:18.804Z,101544.22
2022-08-22T10:58:10.741Z,101553.84
2022-08-22T11:00:56.584Z,101545.16
2022-08-22T11:03:25.933Z,101538.44
2022-08-22T11:05:59.633Z,101541.78
2022-08-22T11:08:37.109Z,101546.31
2022-08-22T11:11:06.502Z,101537.38
2022-08-22T11:13:51.700Z,101535.00
2022-08-22T11:16:36.792Z,101532.13
2022-08-22T11:19:20.784Z,101533.28
2022-08-22T11:22:18.980Z,101524.16
2022-08-22T11:25:14.099Z,101530.28
2022-08-22T11:28:15.681Z,101538.91
2022-08-22T11:31:03.617Z,101528.84
2022-08-22T11:33:46.902Z,101541.97
2022-08-22T11:36:31.045Z,101534.22
2022-08-22T11:39:25.360Z,101528.13
2022-08-22T11:42:07.268Z,101531.59
2022-08-22T11:44:50.300Z,101521.41
2022-08-22T11:47:27.162Z,101519.31
2022-08-22T11:50:15.008Z,101514.56
2022-08-22T11:53:14.429Z,101516.50
2022-08-22T11:56:05.435Z,101517.28
2022-08-22T11:58:41.846Z,101510.72
2022-08-22T12:01:18.574Z,101509.22
2022-08-22T12:04:09.977Z,101510.63
2022-08-22T12:06:49.913Z,101516.31
2022-08-22T12:09:50.522Z,101520.50
2022-08-22T12:12:40.258Z,101520.38
2022-08-22T12:15:30.482Z,101524.72
2022-08-22T12:18:33.684Z,101521.78
2022-08-22T12:21:06.473Z,101512.75
2022-08-22T12:23:48.799Z,101510.59
2022-08-22T12:26:27.837Z,101502.41
2022-08-22T12:29:15.427Z,101523.13
2022-08-22T12:31:59.407Z,101505.66
2022-08-22T12:34:54.781Z,101501.09
2022-08-22T12:37:52.972Z,101499.34
2022-08-22T12:40:37.976Z,101510.06
2022-08-22T12:43:32.826Z,101501.66
2022-08-22T12:46:18.720Z,101501.84
2022-08-22T12:49:00.498Z,101497.63
2022-08-22T12:51:57.390Z,101493.41
2022-08-22T12:54:52.982Z,101486.34
2022-08-22T12:57:31.194Z,101480.91
2022-08-22T13:00:38.057Z,101476.25
2022-08-22T13:03:10.153Z,101481.19
2022-08-22T13:05:40.624Z,101472.97
2022-08-22T13:08:17.537Z,101475.50
2022-08-22T13:10:58.247Z,101479.19
2022-08-22T13:13:56.149Z,101475.47
2022-08-22T13:16:48.818Z,101478.16
2022-08-22T13:19:22.312Z,101465.56
2022-08-22T13:21:59.643Z,101472.38
2022-08-22T13:24:51.740Z,101466.25
2022-08-22T13:27:29.858Z,101469.06
2022-08-22T13:30:21.651Z,101474.09
2022-08-22T13:32:49.953Z,101470.81
2022-08-22T13:35:44.630Z,101460.81
2022-08-22T13:38:34.674Z,101464.50
2022-08-22T13:41:04.542Z,101455.72
2022-08-22T13:43:37.040Z,101459.25
2022-08-22T13:46:10.808Z,101447.72
2022-08-22T13:48:56.662Z,101450.22
2022-08-22T13:51:45.182Z,101448.38
2022-08-22T13:54:15.993Z,101444.13
2022-08-22T13:56:53.961Z,101446.84
2022-08-22T13:59:52.444Z,101440.00
2022-08-22T14:02:43.310Z,101447.44
2022-08-22T14:05:16.877Z,101446.16
2022-08-22T14:08:18.750Z,101448.06
2022-08-22T14:11:01.433Z,101441.53
2022-08-22T14:13:49.213Z,101444.22
2022-08-22T14:16:32.184Z,101440.59
2022-08-22T14:19:06.305Z,101431.22
2022-08-22T14:21:42.484Z,101414.31
2022-08-22T14:24:30.891Z,101430.91
2022-08-22T14:27:05.669Z,101421.13
2022-08-22T14:29:50.865Z,101417.16
2022-08-22T14:32:22.805Z,101420.66
2022-08-22T14:35:01.272Z,101412.16
2022-08-22T14:37:39.026Z,101415.63
2022-08-22T14:40:27.952Z,101405.69
2022-08-22T14:43:05.108Z,101410.31
2022-08-22T14:45:40.351Z,101406.75
2022-08-22T14:48:31.343Z,101412.06
2022-08-22T14:51:04.096Z,101411.47
2022-08-22T14:53:34.532Z,101406.66
2022-08-22T14:56:22.185Z,101411.09
2022-08-22T14:59:01.058Z,101404.94
2022-08-22T15:01:53.411Z,101404.84
2022-08-22T15:04:35.684Z,101402.31
2022-08-22T15:07:02.698Z,101396.25
2022-08-22T15:09:33.932Z,101400.69
2022-08-22T15:12:03.780Z,101398.47
2022-08-22T15:14:52.150Z,101402.25
2022-08-22T15:17:44.753Z,101402.78
2022-08-22T15:20:38.214Z,101394.94
2022-08-22T15:23:21.868Z,101397.81
2022-08-22T15:26:06.926Z,101389.44
2022-08-22T15:28:52.547Z,101389.13
2022-08-22T15:31:20.375Z,101390.69
2022-08-22T15:33:47.789Z,101384.22
2022-08-22T15:36:24.444Z,101379.97
2022-08-22T15:38:53.903Z,101385.09
2022-08-22T15:41:26.190Z,101384.31
2022-08-22T15:44:31.140Z,101385.75
2022-08-22T15:47:11.810Z,101379.47
2022-08-22T15:49:56.501Z,101387.22
2022-08-22T15:52:29.512Z,101388.47
2022-08-22T15:54:57.034Z,101383.91
2022-08-22T15:57:31.742Z,101369.13
2022-08-22T16:00:11.121Z,101379.28
2022-08-22T16:02:53.120Z,101370.56
2022-08-22T16:06:07.523Z,101363.22
2022-08-22T16:08:36.877Z,101357.13
2022-08-22T16:11:03.229Z,101374.41
2022-08-22T16:13:30.064Z,101366.06
2022-08-22T16:16:09.114Z,101359.94
2022-08-22T16:18:42.712Z,101359.28
2022-08-22T16:21:16.827Z,101365.91
2022-08-22T16:23:46.256Z,101359.47
2022-08-22T16:26:16.522Z,101358.59
2022-08-22T16:29:19.063Z,101347.88
2022-08-22T16:31:48.450Z,101357.63
2022-08-22T16:34:17.846Z,101349.03
2022-08-22T16:37:08.214Z,101344.38
2022-08-22T16:40:08.127Z,101346.03
2022-08-22T16:42:43.184Z,101346.59
2022-08-22T16:45:18.792Z,101345.03
2022-08-22T16:47:58.216Z,101340.84
2022-08-22T16:50:31.397Z,101340.97
2022-08-22T16:53:07.873Z,101345.59
2022-08-22T16:55:35.951Z,101337.13
2022-08-22T16:58:16.332Z,101340.41
2022-08-22T17:00:48.761Z,101339.69
2022-08-22T17:03:31.649Z,101337.88
2022-08-22T17:06:15.786Z,101336.13
2022-08-22T17:09:01.041Z,101335.47
2022-08-22T17:11:48.868Z,101341.25
2022-08-22T17:14:33.826Z,101325.75
2022-08-22T17:17:29.451Z,101337.34
2022-08-22T17:20:12.683Z,101335.69
2022-08-22T17:22:47.549Z,101339.16
2022-08-22T17:25:22.793Z,101331.31
2022-08-22T17:28:13.167Z,101339.53
2022-08-22T17:31:06.446Z,101340.56
2022-08-22T17:33:54.068Z,101347.03
2022-08-22T17:36:45.966Z,101345.25
2022-08-22T17:39:41.868Z,101346.56
2022-08-22T17:42:21.796Z,101343.28
2022-08-22T17:45:03.487Z,101343.53
2022-08-22T17:48:07.210Z,101348.91
2022-08-22T17:50:51.268Z,101351.88
2022-08-22T17:53:38.676Z,101352.13
2022-08-22T17:56:26.237Z,101352.28
2022-08-22T17:59:09.739Z,101353.16
2022-08-22T18:01:55.961Z,101357.91
2022-08-22T18:04:33.316Z,101346.59
2022-08-22T18:07:14.731Z,101360.44
2022-08-22T18:09:51.842Z,101352.66
2022-08-22T18:12:34.375Z,101352.19
2022-08-22T18:15:11.282Z,101352.72
2022-08-22T18:17:47.031Z,101359.44
2022-08-22T18:20:22.973Z,101365.28
2022-08-22T18:22:54.793Z,101364.63
2022-08-22T18:25:21.886Z,101364.84
2022-08-22T18:28:14.915Z,101360.63
2022-08-22T18:30:54.760Z,101366.19
2022-08-22T18:33:40.378Z,101367.28
2022-08-22T18:36:18.546Z,101372.03
2022-08-22T18:38:55.673Z,101363.50
2022-08-22T18:41:31.482Z,101371.91
2022-08-22T18:44:00.155Z,101381.22
2022-08-22T18:46:39.816Z,101378.69
2022-08-22T18:49:24.082Z,101383.50
2022-08-22T18:52:06.827Z,101382.94
2022-08-22T18:55:02.513Z,101390.38
2022-08-22T18:57:40.336Z,101392.47
2022-08-22T19:00:23.647Z,101400.84
2022-08-22T19:03:03.571Z,101393.13
2022-08-22T19:05:42.040Z,101403.41
2022-08-22T19:08:17.226Z,101400.06
2022-08-22T19:11:03.465Z,101396.81
2022-08-22T19:13:51.410Z,101404.44
2022-08-22T19:16:43.655Z,101408.50
2022-08-22T19:19:21.649Z,101413.34
2022-08-22T19:22:22.950Z,101417.97
2022-08-22T19:25:26.473Z,101406.03
2022-08-22T19:28:04.849Z,101423.03
2022-08-22T19:30:36.521Z,101420.56
2022-08-22T19:33:07.194Z,101412.69
2022-08-22T19:36:04.943Z,101415.66
2022-08-22T19:38:51.635Z,101423.91
2022-08-22T19:41:46.450Z,101420.66
2022-08-22T19:44:42.503Z,101419.16
2022-08-22T19:47:17.562Z,101417.63
2022-08-22T19:49:55.221Z,101416.22
2022-08-22T19:52:30.570Z,101417.31
2022-08-22T19:55:33.663Z,101417.69
2022-08-22T19:58:13.296Z,101411.69
2022-08-22T20:00:56.616Z,101414.72
2022-08-22T20:03:40.548Z,101415.78
2022-08-22T20:06:43.471Z,101411.41
2022-08-22T20:09:42.815Z,101411.59
2022-08-22T20:12:24.706Z,101413.84
2022-08-22T20:14:51.830Z,101403.50
2022-08-22T20:17:24.169Z,101408.28
2022-08-22T20:20:18.596Z,101400.59
2022-08-22T20:22:52.940Z,101409.69
2022-08-22T20:25:42.442Z,101409.06
2022-08-22T20:28:51.666Z,101401.31
2022-08-22T20:31:24.661Z,101400.75
2022-08-22T20:34:15.591Z,101402.78
2022-08-22T20:36:45.223Z,101391.47
2022-08-22T20:39:18.943Z,101400.47
2022-08-22T20:42:00.874Z,101396.91
2022-08-22T20:44:35.273Z,101398.88
2022-08-22T20:47:11.482Z,101405.25
2022-08-22T20:49:45.489Z,101398.34
2022-08-22T20:52:30.446Z,101405.56
2022-08-22T20:55:12.800Z,101409.44
2022-08-22T20:57:50.665Z,101399.72
2022-08-22T21:00:28.283Z,101406.91
2022-08-22T21:03:07.315Z,101411.59
2022-08-22T21:05:46.440Z,101405.47
2022-08-22T21:08:21.875Z,101413.53
2022-08-22T21:11:21.729Z,101409.13
2022-08-22T21:13:48.741Z,101411.00
2022-08-22T21:16:20.682Z,101408.19
2022-08-22T21:18:52.581Z,101409.03
2022-08-22T21:21:27.262Z,101402.75
2022-08-22T21:23:59.938Z,101397.44
2022-08-22T21:26:29.371Z,101395.72
2022-08-22T21:28:58.574Z,101394.00
2022-08-22T21:31:30.220Z,101399.41
2022-08-22T21:34:00.048Z,101394.16
2022-08-22T21:36:30.161Z,101390.66
2022-08-22T21:39:06.458Z,101392.56
2022-08-22T21:41:47.235Z,101387.44
2022-08-22T21:44:37.839Z,101397.22
2022-08-22T21:47:31.576Z,101385.84
2022-08-22T21:50:13.396Z,101387.75
2022-08-22T21:52:41.264Z,101385.03
2022-08-22T21:55:26.952Z,101394.00
2022-08-22T21:58:07.105Z,101391.47
2022-08-22T22:00:52.826Z,101392.53
2022-08-22T22:03:22.973Z,101386.44
2022-08-22T22:05:50.866Z,101378.44
2022-08-22T22:08:19.019Z,101384.47
2022-08-22T22:10:47.590Z,101389.72
2022-08-22T22:13:14.514Z,101388.03
2022-08-22T22:15:44.956Z,101391.47
2022-08-22T22:18:14.115Z,101382.66
2022-08-22T22:20:41.620Z,101386.44
2022-08-22T22:23:09.095Z,101387.44
2022-08-22T22:25:41.226Z,101393.88
2022-08-22T22:28:31.973Z,101390.38
2022-08-22T22:31:01.425Z,101390.47
2022-08-22T22:33:32.468Z,101391.50
2022-08-22T22:36:06.214Z,101386.31
2022-08-22T22:38:33.461Z,101386.31
2022-08-22T22:41:00.028Z,101391.69
2022-08-22T22:43:27.789Z,101399.84
2022-08-22T22:45:54.297Z,101395.50
2022-08-22T22:48:24.411Z,101399.06
2022-08-22T22:50:53.097Z,101395.56
2022-08-22T22:53:21.203Z,101389.25
2022-08-22T22:55:57.731Z,101397.19
2022-08-22T22:58:27.940Z,101389.38
2022-08-22T23:00:55.015Z,101396.53
2022-08-22T23:03:21.638Z,101394.75
2022-08-22T23:05:48.833Z,101397.50
2022-08-22T23:08:15.818Z,101392.19
2022-08-22T23:10:42.291Z,101390.50
2022-08-22T23:13:09.170Z,101394.97
2022-08-22T23:15:37.228Z,101395.06
2022-08-22T23:18:03.787Z,101398.59
2022-08-22T23:20:30.658Z,101397.72
2022-08-22T23:22:57.567Z,101390.56
2022-08-22T23:25:24.600Z,101394.94
2022-08-22T23:27:52.594Z,101400.34
2022-08-22T23:30:20.810Z,101392.44
2022-08-22T23:32:47.584Z,101385.38
2022-08-22T23:35:14.071Z,101394.25
2022-08-22T23:37:40.533Z,101390.75
2022-08-22T23:40:09.170Z,101388.16
2022-08-22T23:42:36.086Z,101379.34
2022-08-22T23:45:02.897Z,101376.84
2022-08-22T23:47:29.296Z,101368.72
2022-08-22T23:49:56.139Z,101371.44
2022-08-22T23:52:25.827Z,101384.88
2022-08-22T23:54:55.646Z,101370.66
2022-08-22T23:57:26.560Z,101379.75
2022-08-22T23:59:57.760Z,101378.97
